EDDK/CGN METAR and TAF weather

Enter ICAO airport designator
Station Type Date Time Source
EDDK METAR 2021/08/04 18:50 UTC NOAA

EDDK 041850Z 01005KT 340V070 9999 -SHRA FEW070CB 16/15 Q1012 RESHRA NOSIG


Station Type Date Time Source
EDDK Decoded METAR 2021/08/04 18:50 UTC NOAA

Koeln / Bonn, Germany (EDDK) 50-52N 007-10E 100M
Aug 04, 2021 - 02:50 PM EDT / 2021.08.04 1850 UTC
Wind: from the N (010 degrees) at 6 MPH (5 KT) (direction variable):0
Visibility: greater than 7 mile(s):0
Sky conditions: mostly clear
Weather: light rain showers; Cumulonimbus clouds observed
Temperature: 60 F (16 C)
Dew Point: 59 F (15 C)
Relative Humidity: 93%
Pressure (altimeter): 29.88 in. Hg (1012 hPa)
ob: EDDK 041850Z 01005KT 340V070 9999 -SHRA FEW070CB 16/15 Q1012 RESHRA NOSIG
cycle: 19

Station Type Date Time Source
EDDK TAF 2021/08/04 18:46 UTC NOAA

TAF COR EDDK 041737Z 0418/0524 VRB03KT 9999 SCT030
TEMPO 0418/0420 SHRA BKN030CB PROB30
TEMPO 0503/0508 3500 BR BKN006
BECMG 0510/0512 15006KT
TEMPO 0510/0520 SHRA BKN030CB PROB30
TEMPO 0513/0518 TSRA

Example: see airport list